createdAt,value
2018-09-17T00:00:07.304Z,72.20
2018-09-17T00:02:35.552Z,72.20
2018-09-17T00:05:03.823Z,72.40
2018-09-17T00:07:32.627Z,72.40
2018-09-17T00:10:00.856Z,72.60
2018-09-17T00:12:29.239Z,72.50
2018-09-17T00:14:57.633Z,72.50
2018-09-17T00:17:26.334Z,72.50
2018-09-17T00:19:54.595Z,72.60
2018-09-17T00:22:22.887Z,73.10
2018-09-17T00:24:51.115Z,72.70
2018-09-17T00:27:19.456Z,72.80
2018-09-17T00:29:47.916Z,72.70
2018-09-17T00:32:16.161Z,72.80
2018-09-17T00:34:44.500Z,72.80
2018-09-17T00:37:12.763Z,72.80
2018-09-17T00:39:41.385Z,72.80
2018-09-17T00:42:09.707Z,72.80
2018-09-17T00:44:38.025Z,72.80
2018-09-17T00:47:06.327Z,72.90
2018-09-17T00:49:34.645Z,72.90
2018-09-17T00:52:02.939Z,72.90
2018-09-17T00:54:31.350Z,73.00
2018-09-17T00:56:59.561Z,73.20
2018-09-17T00:59:27.891Z,73.20
2018-09-17T01:01:56.760Z,73.10
2018-09-17T01:04:25.296Z,73.10
2018-09-17T01:06:53.608Z,73.00
2018-09-17T01:09:27.267Z,73.10
2018-09-17T01:11:55.531Z,73.10
2018-09-17T01:14:23.768Z,73.10
2018-09-17T01:16:51.985Z,73.30
2018-09-17T01:19:20.338Z,73.20
2018-09-17T01:21:48.623Z,73.20
2018-09-17T01:24:17.165Z,73.30
2018-09-17T01:26:45.424Z,73.40
2018-09-17T01:29:13.699Z,73.30
2018-09-17T01:31:42.077Z,73.30
2018-09-17T01:34:10.330Z,73.60
2018-09-17T01:36:38.602Z,73.50
2018-09-17T01:39:09.418Z,73.60
2018-09-17T01:41:37.738Z,73.70
2018-09-17T01:44:06.289Z,73.70
2018-09-17T01:46:34.716Z,73.70
2018-09-17T01:49:02.998Z,73.80
2018-09-17T01:51:31.306Z,74.00
2018-09-17T01:53:59.781Z,73.90
2018-09-17T01:56:28.154Z,74.00
2018-09-17T01:58:56.589Z,74.00
2018-09-17T02:01:24.861Z,74.10
2018-09-17T02:03:53.115Z,74.00
2018-09-17T02:06:21.821Z,73.90
2018-09-17T02:08:50.102Z,73.80
2018-09-17T02:11:18.316Z,73.80
2018-09-17T02:13:46.625Z,73.70
2018-09-17T02:16:15.132Z,73.70
2018-09-17T02:18:43.414Z,73.70
2018-09-17T02:21:12.156Z,73.70
2018-09-17T02:23:41.337Z,73.70
2018-09-17T02:26:09.586Z,73.80
2018-09-17T02:28:37.878Z,73.80
2018-09-17T02:31:06.243Z,73.90
2018-09-17T02:33:34.617Z,74.00
2018-09-17T02:36:02.833Z,74.00
2018-09-17T02:38:31.159Z,74.00
2018-09-17T02:40:59.441Z,74.10
2018-09-17T02:43:27.926Z,74.00
2018-09-17T02:45:56.382Z,74.10
2018-09-17T02:48:24.703Z,74.00
2018-09-17T02:50:53.119Z,74.00
2018-09-17T02:53:21.373Z,74.10
2018-09-17T02:55:49.632Z,74.30
2018-09-17T02:58:17.941Z,74.40
2018-09-17T03:00:46.478Z,74.50
2018-09-17T03:03:14.765Z,74.40
2018-09-17T03:05:43.010Z,74.30
2018-09-17T03:08:11.380Z,74.40
2018-09-17T03:10:39.642Z,74.40
2018-09-17T03:13:07.988Z,74.40
2018-09-17T03:15:47.734Z,74.40
2018-09-17T03:18:16.084Z,74.40
2018-09-17T03:20:44.431Z,74.40
2018-09-17T03:23:12.652Z,74.40
2018-09-17T03:25:40.932Z,74.50
2018-09-17T03:28:09.193Z,74.60
2018-09-17T03:30:37.562Z,74.60
2018-09-17T03:33:05.792Z,74.60
2018-09-17T03:35:34.041Z,74.50
2018-09-17T03:38:22.812Z,74.50
2018-09-17T03:40:51.189Z,74.70
2018-09-17T03:43:19.408Z,74.70
2018-09-17T03:45:47.712Z,74.70
2018-09-17T03:48:16.017Z,74.80
2018-09-17T03:50:44.306Z,74.70
2018-09-17T03:53:12.544Z,74.70
2018-09-17T03:55:40.888Z,74.50
2018-09-17T03:58:09.150Z,74.60
2018-09-17T04:00:37.385Z,74.60
2018-09-17T04:03:05.775Z,74.60
2018-09-17T04:05:34.064Z,74.60
2018-09-17T04:08:03.564Z,74.70
2018-09-17T04:10:31.834Z,74.70
2018-09-17T04:13:00.144Z,74.80
2018-09-17T04:15:28.806Z,74.80
2018-09-17T04:17:57.922Z,75.10
2018-09-17T04:20:26.424Z,75.10
2018-09-17T04:22:54.728Z,75.10
2018-09-17T04:25:22.927Z,75.10
2018-09-17T04:27:51.273Z,75.10
2018-09-17T04:30:19.547Z,76.20
2018-09-17T04:32:47.864Z,76.40
2018-09-17T04:35:16.125Z,76.50
2018-09-17T04:37:44.362Z,76.50
2018-09-17T04:40:12.619Z,76.50
2018-09-17T04:42:40.862Z,76.50
2018-09-17T04:45:09.133Z,77.20
2018-09-17T04:47:37.415Z,76.40
2018-09-17T04:50:05.707Z,76.30
2018-09-17T04:52:33.912Z,76.30
2018-09-17T04:55:02.362Z,76.10
2018-09-17T04:57:31.004Z,76.10
2018-09-17T04:59:59.327Z,76.10
2018-09-17T05:02:27.629Z,76.10
2018-09-17T05:04:55.923Z,76.30
2018-09-17T05:07:24.235Z,76.40
2018-09-17T05:09:52.456Z,76.50
2018-09-17T05:12:20.708Z,76.60
2018-09-17T05:14:49.071Z,76.70
2018-09-17T05:17:17.417Z,76.60
2018-09-17T05:19:45.827Z,76.70
2018-09-17T05:22:14.028Z,76.80
2018-09-17T05:24:42.308Z,76.80
2018-09-17T05:27:10.558Z,76.80
2018-09-17T05:29:38.741Z,76.70
2018-09-17T05:32:06.991Z,76.80
2018-09-17T05:34:35.135Z,76.70
2018-09-17T05:37:03.292Z,76.50
2018-09-17T05:39:31.500Z,76.40
2018-09-17T05:41:59.644Z,76.50
2018-09-17T05:44:27.826Z,76.40
2018-09-17T05:46:55.966Z,76.50
2018-09-17T05:49:24.149Z,76.50
2018-09-17T05:51:52.781Z,76.60
2018-09-17T05:54:20.937Z,76.60
2018-09-17T05:56:49.122Z,76.60
2018-09-17T05:59:17.278Z,76.60
2018-09-17T06:01:45.459Z,76.60
2018-09-17T06:04:13.664Z,76.70
2018-09-17T06:06:41.950Z,76.70
2018-09-17T06:09:11.598Z,76.70
2018-09-17T06:11:39.810Z,77.50
2018-09-17T06:14:08.460Z,76.80
2018-09-17T06:16:36.760Z,75.90
2018-09-17T06:19:05.378Z,75.50
2018-09-17T06:21:33.547Z,75.90
2018-09-17T06:24:02.308Z,75.90
2018-09-17T06:26:30.504Z,75.90
2018-09-17T06:28:58.620Z,75.90
2018-09-17T06:31:26.963Z,76.00
2018-09-17T06:33:56.128Z,75.90
2018-09-17T06:36:24.443Z,75.90
2018-09-17T06:38:52.547Z,75.70
2018-09-17T06:41:20.715Z,75.60
2018-09-17T06:43:49.047Z,75.50
2018-09-17T06:46:17.238Z,75.60
2018-09-17T06:48:45.432Z,75.50
2018-09-17T06:51:13.631Z,75.40
2018-09-17T06:53:42.204Z,75.30
2018-09-17T06:56:10.366Z,75.20
2018-09-17T06:58:38.552Z,75.20
2018-09-17T07:01:06.731Z,74.90
2018-09-17T07:03:34.992Z,74.90
2018-09-17T07:06:03.168Z,75.50
2018-09-17T07:08:31.333Z,74.80
2018-09-17T07:10:59.540Z,74.70
2018-09-17T07:13:27.806Z,74.70
2018-09-17T07:15:55.981Z,74.50
2018-09-17T07:18:24.291Z,74.50
2018-09-17T07:20:52.553Z,74.50
2018-09-17T07:23:20.801Z,74.50
2018-09-17T07:25:48.982Z,74.60
2018-09-17T07:28:17.135Z,74.50
2018-09-17T07:30:45.344Z,75.20
2018-09-17T07:33:13.525Z,74.40
2018-09-17T07:35:41.701Z,74.40
2018-09-17T07:38:09.864Z,74.60
2018-09-17T07:40:38.146Z,74.30
2018-09-17T07:43:07.163Z,74.20
2018-09-17T07:45:35.369Z,74.20
2018-09-17T07:48:03.541Z,74.10
2018-09-17T07:50:31.731Z,74.10
2018-09-17T07:52:59.944Z,74.10
2018-09-17T07:55:28.182Z,74.10
2018-09-17T07:57:56.342Z,74.20
2018-09-17T08:00:24.650Z,74.20
2018-09-17T08:02:52.829Z,74.20
2018-09-17T08:05:20.990Z,74.20
2018-09-17T08:07:49.166Z,74.10
2018-09-17T08:10:20.335Z,74.10
2018-09-17T08:12:49.011Z,74.10
2018-09-17T08:15:17.204Z,74.10
2018-09-17T08:17:49.981Z,74.10
2018-09-17T08:20:18.259Z,74.10
2018-09-17T08:22:46.434Z,74.20
2018-09-17T08:25:14.589Z,74.80
2018-09-17T08:27:42.868Z,74.60
2018-09-17T08:30:11.024Z,74.00
2018-09-17T08:32:39.197Z,73.90
2018-09-17T08:35:08.493Z,73.90
2018-09-17T08:37:36.679Z,73.80
2018-09-17T08:40:04.968Z,73.70
2018-09-17T08:42:33.157Z,73.60
2018-09-17T08:45:01.328Z,73.60
2018-09-17T08:47:29.626Z,74.20
2018-09-17T08:49:57.800Z,73.30
2018-09-17T08:52:25.957Z,73.20
2018-09-17T08:54:59.646Z,73.10
2018-09-17T08:57:36.011Z,72.90
2018-09-17T09:00:11.466Z,72.90
2018-09-17T09:02:45.132Z,72.80
2018-09-17T09:05:19.004Z,72.10
2018-09-17T09:07:51.189Z,72.60
2018-09-17T09:10:26.572Z,72.60
2018-09-17T09:13:00.683Z,72.40
2018-09-17T09:15:35.630Z,72.60
2018-09-17T09:18:04.856Z,72.50
2018-09-17T09:20:33.151Z,72.40
2018-09-17T09:23:01.503Z,72.40
2018-09-17T09:25:29.824Z,72.30
2018-09-17T09:27:58.275Z,72.20
2018-09-17T09:30:26.611Z,72.10
2018-09-17T09:32:54.792Z,72.00
2018-09-17T09:35:23.393Z,72.00
2018-09-17T09:37:52.065Z,71.80
2018-09-17T09:40:20.300Z,71.60
2018-09-17T09:42:48.476Z,71.60
2018-09-17T09:45:17.313Z,71.40
2018-09-17T09:47:46.693Z,71.20
2018-09-17T09:50:14.898Z,71.10
2018-09-17T09:52:43.146Z,70.90
2018-09-17T09:55:14.015Z,71.00
2018-09-17T09:57:42.258Z,70.90
2018-09-17T10:00:14.764Z,70.90
2018-09-17T10:02:48.366Z,70.80
2018-09-17T10:05:16.945Z,70.60
2018-09-17T10:07:45.180Z,70.60
2018-09-17T10:10:18.759Z,70.40
2018-09-17T10:12:52.431Z,70.40
2018-09-17T10:15:31.104Z,70.30
2018-09-17T10:18:04.875Z,70.10
2018-09-17T10:20:33.474Z,69.80
2018-09-17T10:23:01.680Z,69.90
2018-09-17T10:25:30.161Z,69.70
2018-09-17T10:27:58.381Z,69.70
2018-09-17T10:30:26.600Z,69.50
2018-09-17T10:32:54.906Z,69.40
2018-09-17T10:35:23.277Z,69.30
2018-09-17T10:37:51.927Z,69.30
2018-09-17T10:40:20.514Z,69.10
2018-09-17T10:42:48.758Z,68.90
2018-09-17T10:45:16.923Z,68.80
2018-09-17T10:47:45.377Z,68.60
2018-09-17T10:50:13.626Z,68.50
2018-09-17T10:52:45.631Z,68.30
2018-09-17T10:55:13.941Z,68.30
2018-09-17T10:57:42.200Z,68.40
2018-09-17T11:00:10.462Z,68.10
2018-09-17T11:02:38.698Z,67.80
2018-09-17T11:05:07.106Z,67.60
2018-09-17T11:07:35.300Z,67.50
2018-09-17T11:10:03.677Z,67.40
2018-09-17T11:12:32.067Z,67.30
2018-09-17T11:15:00.324Z,67.10
2018-09-17T11:17:28.931Z,67.00
2018-09-17T11:19:57.060Z,67.10
2018-09-17T11:22:25.293Z,66.90
2018-09-17T11:24:53.523Z,66.70
2018-09-17T11:27:22.428Z,66.50
2018-09-17T11:29:50.613Z,66.30
2018-09-17T11:32:18.874Z,66.10
2018-09-17T11:34:47.142Z,66.00
2018-09-17T11:37:15.436Z,66.00
2018-09-17T11:39:43.708Z,65.80
2018-09-17T11:42:12.027Z,65.70
2018-09-17T11:44:40.537Z,65.50
2018-09-17T11:47:09.212Z,65.30
2018-09-17T11:49:37.570Z,65.20
2018-09-17T11:52:05.919Z,65.00
2018-09-17T11:54:36.602Z,64.90
2018-09-17T11:57:04.813Z,64.70
2018-09-17T11:59:33.136Z,64.60
2018-09-17T12:02:04.975Z,64.40
2018-09-17T12:05:36.249Z,64.20
2018-09-17T12:08:08.906Z,64.30
2018-09-17T12:10:37.187Z,64.00
2018-09-17T12:13:05.445Z,64.60
2018-09-17T12:15:33.677Z,63.60
2018-09-17T12:18:02.130Z,63.50
2018-09-17T12:20:30.385Z,63.00
2018-09-17T12:22:58.717Z,63.20
2018-09-17T12:25:27.040Z,63.00
2018-09-17T12:28:00.450Z,62.90
2018-09-17T12:30:28.697Z,62.10
2018-09-17T12:32:56.965Z,62.50
2018-09-17T12:35:25.561Z,62.30
2018-09-17T12:37:54.153Z,62.30
2018-09-17T12:40:22.753Z,61.90
2018-09-17T12:42:51.050Z,62.10
2018-09-17T12:45:20.820Z,61.80
2018-09-17T12:47:49.196Z,61.80
2018-09-17T12:50:17.455Z,61.90
2018-09-17T12:52:45.796Z,61.70
2018-09-17T12:55:14.154Z,61.50
2018-09-17T12:57:42.323Z,61.30
2018-09-17T13:00:11.121Z,61.70
2018-09-17T13:02:39.617Z,61.00
2018-09-17T13:05:07.964Z,61.10
2018-09-17T13:07:36.241Z,61.00
2018-09-17T13:10:04.476Z,60.60
2018-09-17T13:12:32.805Z,60.70
2018-09-17T13:15:01.029Z,60.70
2018-09-17T13:17:29.649Z,60.60
2018-09-17T13:19:57.955Z,60.20
2018-09-17T13:22:31.436Z,60.30
2018-09-17T13:24:59.884Z,59.80
2018-09-17T13:27:28.322Z,59.90
2018-09-17T13:29:56.637Z,60.00
2018-09-17T13:32:24.875Z,60.00
2018-09-17T13:34:53.231Z,60.00
2018-09-17T13:37:21.484Z,60.00
2018-09-17T13:39:49.733Z,59.90
2018-09-17T13:42:18.642Z,60.00
2018-09-17T13:44:46.857Z,59.90
2018-09-17T13:47:15.145Z,59.70
2018-09-17T13:49:43.396Z,59.60
2018-09-17T13:52:11.604Z,59.40
2018-09-17T13:54:39.888Z,59.30
2018-09-17T13:57:08.219Z,59.20
2018-09-17T13:59:36.534Z,59.10
2018-09-17T14:02:04.808Z,59.00
2018-09-17T14:04:33.062Z,58.90
2018-09-17T14:07:01.254Z,59.00
2018-09-17T14:09:29.557Z,58.90
2018-09-17T14:11:57.793Z,58.50
2018-09-17T14:14:26.033Z,58.30
2018-09-17T14:16:54.396Z,58.50
2018-09-17T14:19:22.715Z,58.70
2018-09-17T14:21:53.429Z,58.70
2018-09-17T14:24:21.658Z,58.60
2018-09-17T14:26:50.008Z,58.60
2018-09-17T14:29:18.280Z,58.60
2018-09-17T14:31:51.842Z,58.00
2018-09-17T14:34:20.144Z,58.60
2018-09-17T14:36:48.308Z,58.50
2018-09-17T14:39:16.535Z,58.60
2018-09-17T14:41:49.517Z,58.40
2018-09-17T14:44:17.740Z,58.40
2018-09-17T14:46:45.945Z,58.50
2018-09-17T14:49:14.314Z,58.40
2018-09-17T14:51:42.523Z,58.50
2018-09-17T14:54:10.997Z,58.40
2018-09-17T14:56:39.229Z,58.30
2018-09-17T14:59:07.654Z,58.30
2018-09-17T15:01:36.084Z,58.30
2018-09-17T15:04:04.252Z,58.10
2018-09-17T15:06:32.765Z,58.30
2018-09-17T15:09:01.018Z,58.10
2018-09-17T15:11:29.266Z,57.80
2018-09-17T15:13:57.532Z,58.20
2018-09-17T15:16:25.974Z,58.10
2018-09-17T15:18:54.232Z,58.10
2018-09-17T15:21:22.508Z,58.20
2018-09-17T15:23:50.900Z,58.40
2018-09-17T15:26:19.238Z,58.30
2018-09-17T15:28:47.359Z,58.40
2018-09-17T15:31:15.825Z,58.20
2018-09-17T15:33:43.983Z,58.40
2018-09-17T15:36:12.213Z,58.60
2018-09-17T15:38:40.439Z,58.60
2018-09-17T15:41:08.841Z,58.60
2018-09-17T15:43:36.940Z,58.70
2018-09-17T15:46:05.338Z,58.80
2018-09-17T15:48:33.560Z,59.60
2018-09-17T15:51:01.925Z,58.90
2018-09-17T15:53:30.159Z,59.20
2018-09-17T15:55:58.600Z,59.10
2018-09-17T15:58:26.679Z,59.20
2018-09-17T16:00:54.993Z,59.30
2018-09-17T16:03:23.245Z,59.20
2018-09-17T16:05:51.538Z,59.20
2018-09-17T16:08:19.722Z,59.50
2018-09-17T16:10:47.980Z,59.60
2018-09-17T16:13:37.659Z,59.60
2018-09-17T16:16:06.091Z,60.40
2018-09-17T16:18:34.603Z,59.30
2018-09-17T16:21:02.906Z,60.00
2018-09-17T16:23:31.148Z,60.10
2018-09-17T16:25:59.400Z,60.20
2018-09-17T16:28:27.693Z,60.20
2018-09-17T16:30:55.914Z,60.20
2018-09-17T16:33:24.365Z,60.20
2018-09-17T16:35:52.572Z,60.20
2018-09-17T16:38:22.246Z,60.20
2018-09-17T16:40:50.548Z,60.30
2018-09-17T16:43:18.665Z,60.40
2018-09-17T16:45:47.248Z,60.50
2018-09-17T16:48:15.952Z,60.50
2018-09-17T16:50:44.212Z,60.60
2018-09-17T16:53:12.892Z,60.50
2018-09-17T16:55:41.129Z,60.60
2018-09-17T16:58:09.534Z,60.00
2018-09-17T17:00:37.809Z,60.70
2018-09-17T17:03:06.125Z,60.60
2018-09-17T17:05:34.454Z,60.50
2018-09-17T17:08:02.675Z,60.60
2018-09-17T17:10:30.968Z,60.60
2018-09-17T17:12:59.287Z,60.70
2018-09-17T17:15:27.557Z,60.70
2018-09-17T17:17:55.926Z,60.70
2018-09-17T17:20:24.284Z,60.80
2018-09-17T17:22:52.630Z,60.90
2018-09-17T17:25:20.827Z,61.00
2018-09-17T17:27:49.610Z,61.00
2018-09-17T17:30:17.901Z,61.20
2018-09-17T17:32:46.103Z,61.30
2018-09-17T17:35:14.587Z,61.40
2018-09-17T17:37:42.963Z,61.50
2018-09-17T17:40:11.252Z,61.50
2018-09-17T17:42:39.427Z,61.50
2018-09-17T17:45:07.699Z,61.50
2018-09-17T17:47:35.921Z,61.50
2018-09-17T17:50:04.784Z,61.70
2018-09-17T17:52:33.217Z,61.80
2018-09-17T17:55:01.826Z,61.90
2018-09-17T17:57:30.205Z,62.00
2018-09-17T17:59:58.550Z,62.00
2018-09-17T18:02:26.920Z,62.10
2018-09-17T18:04:55.319Z,62.10
2018-09-17T18:07:23.631Z,62.20
2018-09-17T18:09:52.434Z,62.20
2018-09-17T18:12:20.744Z,62.30
2018-09-17T18:14:49.004Z,62.40
2018-09-17T18:17:17.414Z,62.50
2018-09-17T18:19:45.992Z,62.50
2018-09-17T18:22:14.493Z,62.50
2018-09-17T18:24:42.791Z,62.60
2018-09-17T18:27:11.113Z,62.70
2018-09-17T18:29:39.371Z,62.80
2018-09-17T18:32:07.748Z,62.70
2018-09-17T18:34:36.067Z,62.80
2018-09-17T18:37:04.481Z,62.80
2018-09-17T18:39:32.998Z,63.00
2018-09-17T18:42:01.353Z,63.10
2018-09-17T18:44:29.675Z,63.20
2018-09-17T18:46:58.384Z,63.30
2018-09-17T18:49:26.840Z,63.20
2018-09-17T18:51:55.329Z,63.30
2018-09-17T18:54:23.729Z,63.20
2018-09-17T18:56:52.612Z,63.30
2018-09-17T18:59:20.901Z,63.40
2018-09-17T19:01:49.304Z,63.60
2018-09-17T19:04:17.613Z,63.70
2018-09-17T19:06:50.964Z,63.90
2018-09-17T19:09:19.415Z,64.00
2018-09-17T19:11:47.726Z,64.20
2018-09-17T19:14:21.420Z,64.00
2018-09-17T19:16:51.484Z,64.10
2018-09-17T19:19:19.808Z,64.10
2018-09-17T19:21:53.523Z,64.90
2018-09-17T19:24:22.002Z,64.30
2018-09-17T19:26:50.448Z,64.40
2018-09-17T19:29:20.313Z,64.40
2018-09-17T19:31:49.046Z,64.30
2018-09-17T19:34:17.561Z,64.40
2018-09-17T19:36:46.297Z,64.30
2018-09-17T19:40:20.686Z,64.40
2018-09-17T19:42:49.989Z,64.30
2018-09-17T19:45:23.746Z,64.30
2018-09-17T19:47:52.754Z,64.30
2018-09-17T19:50:26.377Z,64.40
2018-09-17T19:52:54.843Z,64.30
2018-09-17T19:55:23.086Z,64.40
2018-09-17T19:58:01.643Z,64.40
2018-09-17T20:00:30.090Z,64.50
2018-09-17T20:02:58.262Z,64.40
2018-09-17T20:05:31.921Z,64.50
2018-09-17T20:08:00.494Z,64.50
2018-09-17T20:10:28.872Z,64.50
2018-09-17T20:12:57.208Z,64.40
2018-09-17T20:15:25.550Z,64.60
2018-09-17T20:17:53.889Z,64.50
2018-09-17T20:20:22.286Z,64.60
2018-09-17T20:22:50.596Z,64.60
2018-09-17T20:25:19.139Z,64.70
2018-09-17T20:27:47.379Z,64.80
2018-09-17T20:30:15.620Z,64.80
2018-09-17T20:32:43.897Z,64.80
2018-09-17T20:35:12.141Z,65.00
2018-09-17T20:37:40.393Z,65.00
2018-09-17T20:40:09.695Z,65.00
2018-09-17T20:42:38.035Z,65.00
2018-09-17T20:45:06.384Z,65.10
2018-09-17T20:47:34.698Z,65.10
2018-09-17T20:50:02.998Z,65.20
2018-09-17T20:52:31.506Z,65.30
2018-09-17T20:55:00.082Z,65.30
2018-09-17T20:57:28.479Z,65.40
2018-09-17T20:59:57.207Z,65.50
2018-09-17T21:02:25.499Z,65.50
2018-09-17T21:04:54.018Z,65.60
2018-09-17T21:07:22.383Z,65.60
2018-09-17T21:09:51.040Z,65.70
2018-09-17T21:12:19.438Z,65.60
2018-09-17T21:14:47.939Z,65.80
2018-09-17T21:17:16.245Z,65.90
2018-09-17T21:19:46.175Z,65.90
2018-09-17T21:22:14.503Z,66.00
2018-09-17T21:24:43.069Z,65.90
2018-09-17T21:27:11.482Z,66.00
2018-09-17T21:29:39.737Z,66.00
2018-09-17T21:32:08.397Z,66.10
2018-09-17T21:34:36.728Z,66.10
2018-09-17T21:37:05.107Z,66.10
2018-09-17T21:39:33.705Z,66.10
2018-09-17T21:42:01.965Z,66.90
2018-09-17T21:44:30.277Z,66.30
2018-09-17T21:46:58.824Z,66.30
2018-09-17T21:49:32.004Z,66.30
2018-09-17T21:52:00.242Z,66.40
2018-09-17T21:54:28.740Z,66.30
2018-09-17T21:56:57.341Z,66.40
2018-09-17T21:59:25.631Z,66.50
2018-09-17T22:01:53.859Z,66.50
2018-09-17T22:04:22.429Z,66.60
2018-09-17T22:06:50.664Z,66.60
2018-09-17T22:09:18.967Z,66.70
2018-09-17T22:11:47.421Z,66.70
2018-09-17T22:14:16.018Z,66.80
2018-09-17T22:16:44.231Z,66.70
2018-09-17T22:19:12.503Z,66.20
2018-09-17T22:21:40.832Z,66.90
2018-09-17T22:24:09.128Z,67.00
2018-09-17T22:26:37.559Z,67.00
2018-09-17T22:29:06.344Z,67.00
2018-09-17T22:31:34.896Z,67.00
2018-09-17T22:34:03.159Z,67.10
2018-09-17T22:36:31.453Z,67.20
2018-09-17T22:38:59.775Z,67.10
2018-09-17T22:41:27.996Z,67.10
2018-09-17T22:43:56.397Z,67.10
2018-09-17T22:46:24.990Z,67.20
2018-09-17T22:48:53.216Z,67.30
2018-09-17T22:51:26.302Z,67.30
2018-09-17T22:53:54.597Z,67.40
2018-09-17T22:56:22.939Z,67.40
2018-09-17T22:58:51.170Z,67.40
2018-09-17T23:01:19.796Z,67.40
2018-09-17T23:03:48.318Z,67.40
2018-09-17T23:06:17.291Z,67.40
2018-09-17T23:08:45.705Z,67.50
2018-09-17T23:11:13.960Z,68.20
2018-09-17T23:13:42.232Z,68.10
2018-09-17T23:16:10.505Z,67.50
2018-09-17T23:18:39.034Z,67.50
2018-09-17T23:21:07.472Z,67.50
2018-09-17T23:23:35.897Z,67.60
2018-09-17T23:26:04.223Z,67.60
2018-09-17T23:28:32.621Z,67.60
2018-09-17T23:31:00.983Z,67.70
2018-09-17T23:33:29.310Z,67.70
2018-09-17T23:35:57.514Z,67.80
2018-09-17T23:38:25.833Z,67.90
2018-09-17T23:40:54.129Z,67.80
2018-09-17T23:43:22.621Z,67.80
2018-09-17T23:45:50.959Z,67.90
2018-09-17T23:48:19.410Z,67.90
2018-09-17T23:50:47.743Z,67.90
2018-09-17T23:53:16.024Z,68.00
2018-09-17T23:55:44.664Z,68.10
2018-09-17T23:58:13.020Z,68.10
